createdAt,value
2018-09-08T00:02:26.197Z,6.87
2018-09-08T00:04:56.113Z,7.97
2018-09-08T00:07:32.107Z,10.33
2018-09-08T00:10:04.269Z,5.70
2018-09-08T00:12:37.908Z,5.30
2018-09-08T00:15:14.822Z,5.40
2018-09-08T00:17:52.068Z,6.40
2018-09-08T00:20:30.702Z,6.20
2018-09-08T00:23:06.697Z,6.40
2018-09-08T00:25:45.027Z,5.67
2018-09-08T00:28:25.121Z,6.50
2018-09-08T00:30:55.106Z,5.93
2018-09-08T00:33:25.125Z,10.17
2018-09-08T00:35:55.590Z,6.00
2018-09-08T00:38:25.669Z,4.70
2018-09-08T00:40:55.595Z,4.03
2018-09-08T00:43:25.600Z,4.83
2018-09-08T00:45:55.649Z,4.63
2018-09-08T00:48:25.653Z,8.20
2018-09-08T00:50:55.668Z,4.90
2018-09-08T00:53:25.596Z,4.50
2018-09-08T00:55:55.700Z,4.30
2018-09-08T00:58:25.629Z,5.20
2018-09-08T01:00:55.692Z,5.87
2018-09-08T01:03:25.689Z,6.90
2018-09-08T01:05:55.742Z,4.63
2018-09-08T01:08:25.683Z,4.00
2018-09-08T01:10:55.740Z,5.23
2018-09-08T01:13:25.685Z,5.10
2018-09-08T01:15:57.000Z,4.67
2018-09-08T01:18:26.991Z,4.03
2018-09-08T01:20:57.190Z,7.27
2018-09-08T01:23:27.164Z,4.83
2018-09-08T01:25:57.156Z,8.43
2018-09-08T01:28:27.110Z,4.87
2018-09-08T01:30:58.002Z,4.03
2018-09-08T01:33:28.023Z,11.10
2018-09-08T01:35:58.212Z,4.77
2018-09-08T01:38:28.275Z,7.40
2018-09-08T01:40:58.247Z,4.47
2018-09-08T01:43:28.154Z,4.23
2018-09-08T01:45:58.118Z,3.97
2018-09-08T01:48:28.220Z,4.17
2018-09-08T01:50:58.197Z,3.87
2018-09-08T01:53:28.114Z,4.27
2018-09-08T01:55:58.146Z,4.43
2018-09-08T01:58:28.140Z,6.63
2018-09-08T02:00:58.083Z,4.07
2018-09-08T02:03:28.087Z,4.93
2018-09-08T02:05:58.068Z,5.43
2018-09-08T02:08:28.078Z,4.60
2018-09-08T02:10:58.094Z,3.97
2018-09-08T02:13:28.088Z,4.00
2018-09-08T02:15:58.084Z,6.70
2018-09-08T02:18:28.037Z,4.23
2018-09-08T02:20:58.039Z,4.47
2018-09-08T02:23:27.971Z,4.30
2018-09-08T02:25:58.241Z,4.43
2018-09-08T02:28:35.918Z,7.57
2018-09-08T02:31:08.487Z,4.37
2018-09-08T02:33:46.909Z,5.07
2018-09-08T02:36:21.893Z,4.10
2018-09-08T02:38:54.804Z,4.57
2018-09-08T02:41:24.712Z,4.50
2018-09-08T02:43:54.730Z,4.20
2018-09-08T02:46:24.829Z,4.53
2018-09-08T02:48:55.431Z,4.20
2018-09-08T02:51:23.986Z,7.00
2018-09-08T02:53:52.515Z,4.07
2018-09-08T02:56:21.103Z,4.27
2018-09-08T02:58:51.979Z,3.97
2018-09-08T03:01:20.919Z,4.03
2018-09-08T03:03:49.473Z,4.67
2018-09-08T03:06:18.515Z,4.50
2018-09-08T03:08:48.165Z,4.10
2018-09-08T03:11:19.332Z,4.93
2018-09-08T03:13:48.720Z,4.30
2018-09-08T03:16:24.981Z,4.27
2018-09-08T03:18:53.510Z,5.03
2018-09-08T03:21:23.032Z,8.43
2018-09-08T03:23:51.855Z,5.70
2018-09-08T03:26:20.728Z,5.83
2018-09-08T03:28:51.033Z,4.43
2018-09-08T03:31:20.271Z,6.90
2018-09-08T03:33:49.608Z,5.10
2018-09-08T03:36:22.066Z,5.43
2018-09-08T03:38:51.051Z,8.63
2018-09-08T03:41:23.591Z,5.60
2018-09-08T03:43:52.308Z,7.00
2018-09-08T03:46:20.887Z,5.50
2018-09-08T03:48:49.944Z,6.03
2018-09-08T03:51:20.207Z,5.93
2018-09-08T03:53:49.318Z,14.23
2018-09-08T03:56:19.639Z,5.83
2018-09-08T03:58:48.685Z,5.37
2018-09-08T04:01:18.402Z,5.97
2018-09-08T04:03:49.702Z,6.97
2018-09-08T04:06:20.735Z,5.50
2018-09-08T04:08:51.933Z,6.37
2018-09-08T04:14:20.512Z,5.57
2018-09-08T04:16:50.835Z,6.17
2018-09-08T04:19:21.412Z,5.30
2018-09-08T04:21:51.831Z,5.30
2018-09-08T04:24:21.991Z,5.87
2018-09-08T04:26:53.783Z,4.43
2018-09-08T04:29:23.997Z,6.13
2018-09-08T04:31:53.922Z,5.83
2018-09-08T04:34:23.927Z,5.97
2018-09-08T04:36:53.943Z,6.47
2018-09-08T04:39:24.388Z,5.30
2018-09-08T04:41:54.411Z,8.40
2018-09-08T04:44:24.354Z,6.67
2018-09-08T04:46:54.547Z,5.63
2018-09-08T04:49:24.564Z,5.87
2018-09-08T04:51:54.466Z,4.67
2018-09-08T04:54:24.466Z,5.78
2018-09-08T04:56:58.670Z,5.00
2018-09-08T04:59:28.714Z,5.47
2018-09-08T05:01:58.717Z,9.60
2018-09-08T05:04:28.966Z,10.03
2018-09-08T05:06:59.027Z,4.37
2018-09-08T05:09:29.004Z,6.60
2018-09-08T05:12:00.184Z,7.70
2018-09-08T05:14:30.219Z,5.23
2018-09-08T05:17:00.904Z,5.10
2018-09-08T05:19:31.019Z,6.40
2018-09-08T05:22:01.548Z,4.53
2018-09-08T05:24:31.841Z,5.73
2018-09-08T05:27:02.066Z,5.93
2018-09-08T05:29:32.011Z,5.83
2018-09-08T05:32:02.135Z,5.43
2018-09-08T05:34:32.704Z,7.73
2018-09-08T05:37:03.885Z,4.53
2018-09-08T05:39:34.124Z,5.80
2018-09-08T05:42:07.163Z,6.80
2018-09-08T05:44:38.380Z,6.30
2018-09-08T05:47:11.414Z,5.77
2018-09-08T05:49:48.585Z,6.37
2018-09-08T05:52:20.908Z,6.63
2018-09-08T05:54:51.622Z,6.90
2018-09-08T05:57:22.185Z,8.33
2018-09-08T05:59:52.380Z,5.33
2018-09-08T06:02:22.468Z,5.83
2018-09-08T06:04:52.512Z,7.90
2018-09-08T06:07:22.492Z,8.90
2018-09-08T06:09:52.575Z,6.53
2018-09-08T06:12:22.503Z,6.00
2018-09-08T06:14:52.651Z,6.47
2018-09-08T06:17:24.366Z,6.00
2018-09-08T06:19:54.489Z,6.67
2018-09-08T06:22:24.480Z,8.57
2018-09-08T06:24:54.406Z,5.50
2018-09-08T06:27:24.392Z,5.53
2018-09-08T06:29:55.141Z,4.90
2018-09-08T06:32:25.289Z,4.47
2018-09-08T06:34:55.915Z,3.80
2018-09-08T06:37:25.905Z,5.53
2018-09-08T06:39:56.019Z,4.37
2018-09-08T06:42:26.065Z,8.40
2018-09-08T06:44:56.086Z,5.67
2018-09-08T06:47:26.238Z,11.53
2018-09-08T06:49:56.315Z,3.93
2018-09-08T06:52:26.309Z,6.00
2018-09-08T06:54:56.384Z,4.27
2018-09-08T06:57:26.479Z,4.90
2018-09-08T06:59:56.529Z,5.50
2018-09-08T07:02:26.544Z,4.83
2018-09-08T07:04:56.657Z,4.47
2018-09-08T07:07:26.613Z,3.77
2018-09-08T07:09:56.552Z,4.43
2018-09-08T07:12:26.576Z,3.27
2018-09-08T07:14:56.595Z,17.53
2018-09-08T07:17:26.505Z,7.10
2018-09-08T07:19:56.492Z,4.13
2018-09-08T07:22:26.513Z,6.87
2018-09-08T07:24:56.521Z,3.27
2018-09-08T07:27:26.491Z,2.80
2018-09-08T07:29:56.507Z,7.90
2018-09-08T07:32:26.458Z,4.87
2018-09-08T07:34:56.436Z,2.77
2018-09-08T07:37:26.415Z,3.87
2018-09-08T07:39:56.488Z,2.97
2018-09-08T07:42:26.530Z,3.40
2018-09-08T07:44:56.481Z,3.60
2018-09-08T07:47:26.557Z,3.00
2018-09-08T07:49:56.524Z,5.40
2018-09-08T07:52:26.505Z,2.93
2018-09-08T07:54:56.440Z,5.63
2018-09-08T07:57:26.397Z,2.53
2018-09-08T07:59:56.327Z,3.20
2018-09-08T08:02:26.324Z,10.60
2018-09-08T08:04:56.276Z,2.83
2018-09-08T08:07:26.284Z,2.53
2018-09-08T08:09:56.245Z,4.13
2018-09-08T08:12:26.258Z,3.27
2018-09-08T08:14:56.201Z,3.00
2018-09-08T08:17:26.214Z,3.57
2018-09-08T08:19:56.234Z,3.77
2018-09-08T08:22:26.215Z,2.93
2018-09-08T08:24:56.205Z,3.03
2018-09-08T08:27:26.188Z,5.90
2018-09-08T08:29:56.103Z,3.17
2018-09-08T08:32:26.056Z,3.57
2018-09-08T08:34:56.108Z,3.60
2018-09-08T08:37:26.093Z,8.20
2018-09-08T08:39:56.146Z,4.07
2018-09-08T08:42:26.606Z,2.73
2018-09-08T08:44:56.656Z,4.57
2018-09-08T08:47:26.595Z,4.37
2018-09-08T08:50:14.116Z,5.90
2018-09-08T08:53:01.431Z,2.60
2018-09-08T08:55:31.650Z,2.93
2018-09-08T08:58:02.627Z,5.03
2018-09-08T09:00:33.310Z,2.77
2018-09-08T09:03:03.329Z,2.10
2018-09-08T09:05:33.371Z,2.47
2018-09-08T09:08:03.352Z,2.57
2018-09-08T09:10:34.335Z,2.00
2018-09-08T09:13:05.478Z,10.37
2018-09-08T09:15:36.521Z,2.40
2018-09-08T09:18:07.210Z,3.00
2018-09-08T09:20:54.439Z,6.67
2018-09-08T09:25:43.819Z,5.17
2018-09-08T09:28:16.286Z,1.27
2018-09-08T09:30:47.758Z,1.73
2018-09-08T09:33:18.910Z,3.10
2018-09-08T09:35:50.028Z,0.90
2018-09-08T09:38:20.136Z,2.03
2018-09-08T09:40:50.412Z,2.07
2018-09-08T09:43:20.557Z,4.03
2018-09-08T09:45:50.677Z,1.70
2018-09-08T09:48:21.469Z,2.03
2018-09-08T09:50:51.478Z,1.53
2018-09-08T09:53:21.555Z,1.33
2018-09-08T09:55:51.511Z,0.90
2018-09-08T09:58:21.440Z,1.50
2018-09-08T10:01:12.379Z,16.00
2018-09-08T10:03:45.220Z,2.60
2018-09-08T10:06:15.283Z,2.53
2018-09-08T10:08:52.063Z,7.80
2018-09-08T10:11:22.012Z,3.80
2018-09-08T10:13:52.102Z,4.67
2018-09-08T10:16:22.060Z,1.90
2018-09-08T10:18:52.070Z,4.63
2018-09-08T10:21:22.088Z,1.60
2018-09-08T10:24:04.338Z,2.20
2018-09-08T10:26:22.119Z,3.03
2018-09-08T10:28:52.178Z,1.23
2018-09-08T10:31:22.232Z,1.50
2018-09-08T10:33:52.194Z,3.27
2018-09-08T10:36:22.086Z,1.97
2018-09-08T10:38:52.036Z,1.13
2018-09-08T10:41:22.149Z,2.10
2018-09-08T10:43:52.115Z,3.43
2018-09-08T10:46:22.071Z,6.50
2018-09-08T10:48:52.100Z,3.73
2018-09-08T10:51:47.217Z,2.93
2018-09-08T10:54:17.872Z,6.83
2018-09-08T10:56:48.656Z,2.13
2018-09-08T10:59:19.609Z,1.40
2018-09-08T11:01:50.145Z,3.47
2018-09-08T11:04:20.055Z,2.93
2018-09-08T11:06:50.149Z,4.10
2018-09-08T11:09:20.071Z,3.90
2018-09-08T11:11:50.038Z,1.77
2018-09-08T11:14:19.970Z,3.50
2018-09-08T11:16:49.980Z,9.17
2018-09-08T11:19:19.983Z,2.93
2018-09-08T11:21:49.947Z,2.33
2018-09-08T11:24:19.871Z,1.53
2018-09-08T11:26:49.956Z,0.80
2018-09-08T11:29:19.945Z,3.03
2018-09-08T11:31:49.901Z,3.80
2018-09-08T11:34:19.843Z,2.67
2018-09-08T11:36:49.869Z,3.83
2018-09-08T11:39:19.933Z,2.50
2018-09-08T11:41:49.897Z,1.90
2018-09-08T11:44:19.880Z,1.27
2018-09-08T11:46:49.833Z,4.67
2018-09-08T11:49:19.766Z,2.33
2018-09-08T11:51:49.844Z,1.13
2018-09-08T11:54:19.866Z,1.87
2018-09-08T11:56:49.813Z,2.43
2018-09-08T11:59:19.823Z,2.10
2018-09-08T12:01:49.818Z,1.10
2018-09-08T12:04:19.733Z,1.83
2018-09-08T12:06:49.727Z,1.27
2018-09-08T12:09:19.691Z,3.23
2018-09-08T12:11:49.923Z,4.17
2018-09-08T12:14:19.835Z,9.10
2018-09-08T12:16:49.824Z,2.40
2018-09-08T12:19:19.856Z,1.40
2018-09-08T12:21:49.788Z,3.07
2018-09-08T12:24:19.793Z,2.77
2018-09-08T12:26:49.834Z,0.90
2018-09-08T12:29:19.756Z,4.30
2018-09-08T12:31:49.721Z,2.90
2018-09-08T12:34:19.666Z,1.10
2018-09-08T12:36:49.679Z,1.93
2018-09-08T12:39:19.593Z,0.83
2018-09-08T12:41:49.717Z,4.50
2018-09-08T12:44:19.869Z,3.70
2018-09-08T12:46:50.465Z,1.23
2018-09-08T12:49:20.464Z,1.53
2018-09-08T12:51:50.505Z,1.77
2018-09-08T12:54:20.473Z,1.77
2018-09-08T12:56:50.456Z,11.87
2018-09-08T12:59:20.543Z,2.10
2018-09-08T13:01:50.449Z,0.70
2018-09-08T13:04:20.472Z,2.00
2018-09-08T13:06:50.518Z,6.97
2018-09-08T13:09:20.438Z,1.53
2018-09-08T13:11:50.366Z,1.37
2018-09-08T13:14:20.396Z,0.97
2018-09-08T13:16:50.277Z,2.20
2018-09-08T13:19:20.219Z,3.03
2018-09-08T13:21:50.319Z,1.30
2018-09-08T13:24:20.254Z,0.80
2018-09-08T13:26:50.232Z,1.43
2018-09-08T13:29:20.191Z,1.60
2018-09-08T13:31:50.227Z,1.77
2018-09-08T13:34:20.305Z,2.70
2018-09-08T13:36:50.276Z,0.80
2018-09-08T13:39:20.281Z,0.80
2018-09-08T13:41:50.206Z,2.60
2018-09-08T13:44:20.133Z,5.63
2018-09-08T13:46:50.074Z,1.37
2018-09-08T13:49:20.181Z,2.03
2018-09-08T13:51:50.199Z,4.43
2018-09-08T13:54:20.135Z,2.20
2018-09-08T13:56:50.152Z,0.80
2018-09-08T13:59:20.141Z,1.22
2018-09-08T14:01:50.226Z,4.20
2018-09-08T14:04:20.239Z,5.50
2018-09-08T14:06:50.274Z,5.90
2018-09-08T14:09:20.212Z,2.80
2018-09-08T14:11:50.269Z,3.43
2018-09-08T14:14:20.328Z,1.50
2018-09-08T14:16:50.337Z,1.57
2018-09-08T14:19:20.287Z,2.17
2018-09-08T14:21:50.289Z,2.02
2018-09-08T14:24:20.297Z,5.80
2018-09-08T14:26:50.287Z,0.97
2018-09-08T14:29:20.311Z,1.03
2018-09-08T14:31:50.263Z,1.80
2018-09-08T14:34:20.294Z,3.90
2018-09-08T14:36:51.116Z,1.63
2018-09-08T14:39:21.033Z,1.00
2018-09-08T14:41:51.016Z,2.70
2018-09-08T14:44:21.050Z,1.37
2018-09-08T14:46:51.048Z,1.60
2018-09-08T14:49:21.026Z,1.20
2018-09-08T14:51:51.027Z,1.10
2018-09-08T14:54:21.017Z,3.03
2018-09-08T14:56:51.452Z,2.70
2018-09-08T14:59:21.450Z,3.23
2018-09-08T15:01:51.416Z,2.00
2018-09-08T15:04:22.473Z,0.80
2018-09-08T15:06:52.422Z,0.90
2018-09-08T15:09:22.525Z,1.20
2018-09-08T15:11:52.557Z,1.20
2018-09-08T15:14:22.607Z,1.20
2018-09-08T15:16:52.544Z,0.93
2018-09-08T15:19:22.628Z,5.80
2018-09-08T15:21:52.662Z,2.10
2018-09-08T15:24:22.738Z,1.00
2018-09-08T15:26:52.762Z,1.80
2018-09-08T15:29:22.899Z,0.80
2018-09-08T15:31:52.914Z,4.17
2018-09-08T15:34:23.032Z,1.47
2018-09-08T15:36:53.021Z,1.10
2018-09-08T15:39:23.012Z,2.00
2018-09-08T15:41:53.021Z,1.80
2018-09-08T15:44:22.991Z,4.47
2018-09-08T15:46:53.099Z,1.90
2018-09-08T15:49:23.124Z,3.33
2018-09-08T15:51:53.144Z,2.93
2018-09-08T15:54:23.150Z,1.00
2018-09-08T15:56:53.184Z,2.07
2018-09-08T15:59:23.210Z,7.63
2018-09-08T16:01:53.209Z,1.10
2018-09-08T16:04:23.219Z,1.03
2018-09-08T16:06:53.249Z,1.30
2018-09-08T16:09:23.235Z,4.53
2018-09-08T16:11:53.238Z,1.17
2018-09-08T16:14:23.422Z,2.50
2018-09-08T16:16:53.561Z,3.53
2018-09-08T16:19:23.556Z,3.60
2018-09-08T16:21:53.556Z,3.07
2018-09-08T16:24:23.538Z,4.50
2018-09-08T16:26:53.566Z,2.40
2018-09-08T16:29:23.629Z,1.70
2018-09-08T16:31:53.650Z,4.63
2018-09-08T16:34:23.672Z,4.00
2018-09-08T16:36:53.755Z,0.83
2018-09-08T16:39:24.293Z,1.20
2018-09-08T16:41:54.278Z,1.47
2018-09-08T16:44:24.348Z,3.80
2018-09-08T16:46:54.479Z,1.67
2018-09-08T16:49:24.550Z,1.60
2018-09-08T16:51:54.541Z,1.80
2018-09-08T16:54:24.446Z,3.33
2018-09-08T16:56:54.459Z,3.10
2018-09-08T16:59:24.437Z,1.27
2018-09-08T17:01:54.429Z,2.73
2018-09-08T17:04:24.442Z,3.03
2018-09-08T17:06:54.506Z,2.60
2018-09-08T17:09:24.568Z,1.77
2018-09-08T17:11:54.547Z,1.80
2018-09-08T17:14:24.579Z,6.23
2018-09-08T17:16:54.619Z,3.53
2018-09-08T17:19:24.623Z,8.53
2018-09-08T17:21:54.692Z,3.17
2018-09-08T17:24:24.646Z,1.80
2018-09-08T17:26:54.671Z,2.07
2018-09-08T17:29:24.720Z,4.10
2018-09-08T17:31:54.697Z,2.20
2018-09-08T17:34:24.809Z,3.90
2018-09-08T17:36:54.837Z,7.03
2018-09-08T17:39:24.894Z,4.73
2018-09-08T17:41:54.903Z,10.73
2018-09-08T17:44:24.882Z,1.83
2018-09-08T17:46:54.917Z,5.53
2018-09-08T17:49:25.113Z,2.50
2018-09-08T17:51:55.247Z,3.70
2018-09-08T17:54:25.217Z,3.03
2018-09-08T17:56:55.336Z,4.10
2018-09-08T17:59:25.568Z,3.60
2018-09-08T18:01:56.259Z,3.37
2018-09-08T18:04:26.314Z,3.83
2018-09-08T18:07:02.576Z,2.90
2018-09-08T18:09:32.839Z,3.13
2018-09-08T18:12:03.566Z,5.03
2018-09-08T18:14:33.703Z,6.63
2018-09-08T18:17:03.881Z,4.33
2018-09-08T18:19:33.958Z,2.97
2018-09-08T18:22:03.979Z,4.70
2018-09-08T18:24:33.938Z,4.20
2018-09-08T18:27:03.907Z,6.53
2018-09-08T18:29:33.961Z,3.80
2018-09-08T18:32:03.929Z,4.67
2018-09-08T18:34:33.915Z,2.23
2018-09-08T18:37:03.976Z,3.70
2018-09-08T18:39:33.973Z,5.90
2018-09-08T18:42:04.377Z,3.07
2018-09-08T18:44:34.392Z,2.60
2018-09-08T18:47:04.434Z,2.73
2018-09-08T18:49:34.597Z,3.67
2018-09-08T18:52:04.659Z,3.70
2018-09-08T18:54:34.681Z,4.70
2018-09-08T18:57:04.735Z,8.20
2018-09-08T18:59:34.704Z,23.90
2018-09-08T19:02:05.029Z,21.57
2018-09-08T19:04:35.124Z,24.10
2018-09-08T19:07:05.160Z,23.43
2018-09-08T19:09:35.196Z,30.27
2018-09-08T19:12:05.236Z,38.27
2018-09-08T19:14:40.550Z,45.07
2018-09-08T19:17:10.585Z,38.60
2018-09-08T19:19:40.669Z,35.80
2018-09-08T19:22:11.445Z,41.03
2018-09-08T19:24:43.496Z,38.70
2018-09-08T19:27:14.172Z,31.57
2018-09-08T19:29:48.926Z,31.23
2018-09-08T19:32:20.133Z,34.40
2018-09-08T19:34:55.555Z,24.50
2018-09-08T19:37:26.054Z,27.13
2018-09-08T19:39:56.103Z,18.17
2018-09-08T19:42:26.113Z,21.67
2018-09-08T19:44:56.228Z,18.37
2018-09-08T19:47:31.552Z,19.57
2018-09-08T19:50:01.615Z,17.57
2018-09-08T19:52:36.992Z,19.70
2018-09-08T19:55:07.093Z,15.70
2018-09-08T20:00:34.967Z,19.13
2018-09-08T20:03:05.010Z,18.93
2018-09-08T20:05:35.307Z,26.40
2018-09-08T20:08:05.294Z,22.87
2018-09-08T20:10:35.330Z,19.50
2018-09-08T20:13:05.411Z,18.23
2018-09-08T20:15:35.469Z,22.20
2018-09-08T20:18:05.543Z,13.70
2018-09-08T20:20:35.542Z,30.73
2018-09-08T20:23:05.523Z,33.83
2018-09-08T20:25:35.535Z,44.13
2018-09-08T20:28:05.540Z,45.30
2018-09-08T20:30:35.508Z,40.07
2018-09-08T20:33:05.551Z,35.60
2018-09-08T20:35:35.626Z,41.10
2018-09-08T20:38:06.058Z,47.63
2018-09-08T20:40:36.289Z,40.03
2018-09-08T20:43:06.352Z,40.97
2018-09-08T20:45:36.424Z,43.33
2018-09-08T20:48:06.487Z,44.10
2018-09-08T20:50:36.558Z,39.93
2018-09-08T20:53:06.568Z,40.73
2018-09-08T20:55:36.653Z,41.17
2018-09-08T21:01:04.449Z,43.70
2018-09-08T21:03:34.422Z,39.67
2018-09-08T21:06:04.398Z,39.43
2018-09-08T21:08:37.010Z,35.77
2018-09-08T21:11:07.801Z,37.80
2018-09-08T21:13:37.836Z,40.20
2018-09-08T21:16:08.399Z,34.93
2018-09-08T21:18:38.584Z,34.70
2018-09-08T21:21:08.696Z,38.47
2018-09-08T21:23:39.537Z,36.80
2018-09-08T21:26:09.613Z,39.77
2018-09-08T21:28:39.654Z,37.73
2018-09-08T21:31:09.991Z,40.97
2018-09-08T21:33:40.242Z,35.03
2018-09-08T21:36:10.382Z,37.33
2018-09-08T21:38:40.397Z,41.00
2018-09-08T21:41:10.543Z,45.03
2018-09-08T21:43:40.598Z,39.97
2018-09-08T21:46:11.140Z,41.07
2018-09-08T21:48:41.885Z,38.40
2018-09-08T21:51:13.400Z,32.87
2018-09-08T21:53:43.976Z,37.30
2018-09-08T21:56:14.572Z,38.63
2018-09-08T21:58:45.412Z,41.60
2018-09-08T22:01:21.123Z,36.83
2018-09-08T22:03:51.720Z,40.57
2018-09-08T22:06:22.120Z,36.83
2018-09-08T22:08:52.150Z,29.33
2018-09-08T22:11:22.302Z,25.50
2018-09-08T22:13:52.331Z,30.50
2018-09-08T22:16:22.253Z,32.27
2018-09-08T22:18:52.332Z,29.07
2018-09-08T22:21:22.250Z,35.03
2018-09-08T22:23:52.493Z,34.83
2018-09-08T22:26:22.496Z,35.43
2018-09-08T22:28:52.458Z,28.07
2018-09-08T22:31:22.425Z,28.20
2018-09-08T22:33:52.476Z,30.60
2018-09-08T22:36:22.482Z,30.00
2018-09-08T22:38:52.559Z,28.57
2018-09-08T22:41:22.515Z,24.00
2018-09-08T22:43:52.506Z,25.40
2018-09-08T22:46:22.503Z,21.70
2018-09-08T22:48:52.560Z,24.83
2018-09-08T22:51:22.559Z,16.30
2018-09-08T22:53:52.535Z,17.40
2018-09-08T22:56:22.534Z,14.53
2018-09-08T22:58:52.643Z,10.80
2018-09-08T23:01:22.591Z,14.80
2018-09-08T23:03:52.717Z,14.27
2018-09-08T23:06:22.726Z,9.80
2018-09-08T23:08:52.679Z,17.20
2018-09-08T23:11:22.727Z,22.37
2018-09-08T23:13:52.763Z,21.67
2018-09-08T23:16:22.691Z,14.93
2018-09-08T23:18:52.820Z,18.07
2018-09-08T23:21:22.793Z,13.67
2018-09-08T23:23:52.771Z,20.43
2018-09-08T23:26:22.851Z,14.03
2018-09-08T23:28:52.936Z,18.07
2018-09-08T23:31:22.993Z,16.20
2018-09-08T23:33:53.013Z,22.23
2018-09-08T23:36:22.998Z,19.40
2018-09-08T23:38:53.079Z,36.23
2018-09-08T23:41:22.997Z,16.17
2018-09-08T23:43:53.055Z,18.20
2018-09-08T23:46:23.014Z,13.33
2018-09-08T23:48:52.964Z,9.30
2018-09-08T23:51:22.998Z,9.03
2018-09-08T23:53:52.964Z,8.60
2018-09-08T23:56:22.941Z,8.57
2018-09-08T23:58:52.948Z,6.03
